Escuintla, Guatemala
Current Conditions -  °F | °C
As of 2:00 AM on Friday 19 Dec 2014 (Local Time) from MGGT Reporting Station
Broken Clouds Broken Clouds  
Wind Chill: 61°   Ceiling: 1400
Heat Index: 61°   Visibility: 6mi
Dew Point: 57°   Wind: 7mph
Humidity: 88%   Direction: 30°NNE
Pressure: 30.24"   Gusts: NA
Location:  14.18°N, 90.47°W
Report Text: MGGT 190800Z 03006KT 9999 BKN014 SCT080 16/14 Q1024 A3024
Loading
Personal Weather Stations






























Interactive Weather Map New forecast layout! Learn more

10-Day Weather Forecast

Advertisements
Track Severe Weather on mobile